Delray Beach, FL

12:58 PM EDT on July 28, 2016 (GMT -0400)
Lake Ida - Garden House | | Change Station

Elev 0 ft 26.48 °N, 80.07 °W | Updated 3 minutes ago

Scattered Clouds
Scattered Clouds
98.1 °F
Feels Like 119 °F
N
3.7
Wind Variable Wind from SE

Today
High -- | Low -- °F
--% Chance of Precip.
Yesterday
High -- | Low -- °F
Precip. -- in
Pressure 30.08 in
Visibility 10.0 miles
Clouds Few 3300 ft
Few 18000 ft
Scattered Clouds 25000 ft
Heat Index 119 °F
Dew Point 80 °F
Humidity 56%
Rainfall 0.00 in
Snow Depth Not available.
6:43 AM 8:09 PM
Waning Crescent, 30% visible
METAR KPMP 281653Z 10011KT 10SM FEW033 FEW180 SCT250 32/24 A3007 RMK AO2 SLP185 T03220239
Pressure 30.08 in
Visibility 10.0 miles
Clouds Few 3300 ft
Few 18000 ft
Scattered Clouds 25000 ft
Heat Index 119 °F
Dew Point 80 °F
Humidity 56%
Rainfall 0.00 in
Snow Depth Not available.
6:43 AM 8:09 PM
Waning Crescent, 30% visible
METAR KPMP 281653Z 10011KT 10SM FEW033 FEW180 SCT250 32/24 A3007 RMK AO2 SLP185 T03220239

10-Day Weather Forecast

Almanac

Astronomy

Jul. 28, 2016 Rise Set
Actual Time
Civil Twilight
Nautical Twilight
Astronomical Twilight
Moon
Length of Visible Light
Length of Day
Tomorrow will be .
, % of the Moon is Illuminated

Today's Extremes

State Highs State Lows

Community

WunderPhotos

Upload Photos

1,928,153 photos uploaded!

WunderBlog® & News

Nearby

Air Quality

  Air Quality AQ Index Pollutant
Not available.

Snow Depth

Station Depth Elevation

Earthquake Activity

City Distance Mag. Time & Date
Minimum magnitude displayed is 2.5.

Coastal Water Temperatures

Place Temperature

Stations

Nearby Weather Stations

Station Location Temp. Windchill Dew Point Humidity Wind Precip. Elev Updated Type
                   

Watches & Warnings

There are currently no watches in effect.